• vieta
  • image
  • image
  • image
mod_vvisit_countermod_vvisit_countermod_vvisit_countermod_vvisit_countermod_vvisit_countermod_vvisit_countermod_vvisit_counter
mod_vvisit_counterŠiandien30
mod_vvisit_counterVakar1017
mod_vvisit_counterŠią savaitę1696
mod_vvisit_counterPraėjusią savaitę5305
mod_vvisit_counterŠį mėnesį16847
mod_vvisit_counterPraėjusį mėnesį23031
mod_vvisit_counterViso1002804

Mes turime: 5 svečius, 1 bots online
Jūsų IP: 54.158.208.189
 , 
Šiandien: Spa 23, 2018
Oro uostas

AP V2 LT

 

Čia galite pamatyti trumpą filmuką apie įmonės Šiaulių oro uostas teikiamas paslaugas

Šiandien

Antradienis, 23 Spalis 2018

Orų prognozė aviacijai

[source: ADDS]
METAR
EYSA 222250Z AUTO 25007KT 9999NDV NCD 04/03 Q1014 =
TAF EYSA 222307Z 2300/2309 23012KT 9000 BKN020 TEMPO 2300/2305 1500 BR SCT003 BECMG 2305/2306 23022G32KT 5000 RA BR OVC005
TAF
TAF EYSA 222307Z 2300/2309 23012KT 9000 BKN020 TEMPO 2300/2305 1500 BR SCT003 BECMG 2305/2306 23022G32KT 5000 RA BR OVC005 =
SR / SS: 05:14 / 15:10 UTC (EYSA 2018-10-23)

Paieška

Lankytojai

Mes turime 6 svečius online

tic logo lt